sensor_id;sensor_type;location;lat;lon;timestamp;P1;durP1;ratioP1;P2;durP2;ratioP2
44995;SDS011;30729;49.486;10.792;2023-05-09T00:01:41;10.30;;;7.40;;
44995;SDS011;30729;49.486;10.792;2023-05-09T00:04:07;13.10;;;7.38;;
44995;SDS011;30729;49.486;10.792;2023-05-09T00:06:32;12.63;;;7.95;;
44995;SDS011;30729;49.486;10.792;2023-05-09T00:08:58;10.20;;;7.63;;
44995;SDS011;30729;49.486;10.792;2023-05-09T00:11:23;10.37;;;8.17;;
44995;SDS011;30729;49.486;10.792;2023-05-09T00:13:48;12.00;;;8.32;;
44995;SDS011;30729;49.486;10.792;2023-05-09T00:16:14;15.88;;;7.78;;
44995;SDS011;30729;49.486;10.792;2023-05-09T00:18:40;11.80;;;8.23;;
44995;SDS011;30729;49.486;10.792;2023-05-09T00:21:06;11.77;;;7.75;;
44995;SDS011;30729;49.486;10.792;2023-05-09T00:23:31;11.45;;;7.75;;
44995;SDS011;30729;49.486;10.792;2023-05-09T00:25:57;12.10;;;8.30;;
44995;SDS011;30729;49.486;10.792;2023-05-09T00:28:22;10.30;;;7.50;;
44995;SDS011;30729;49.486;10.792;2023-05-09T00:30:47;12.37;;;8.23;;
44995;SDS011;30729;49.486;10.792;2023-05-09T00:33:12;13.75;;;8.10;;
44995;SDS011;30729;49.486;10.792;2023-05-09T00:35:37;11.37;;;7.77;;
44995;SDS011;30729;49.486;10.792;2023-05-09T00:38:02;14.43;;;8.40;;
44995;SDS011;30729;49.486;10.792;2023-05-09T00:40:28;11.30;;;8.60;;
44995;SDS011;30729;49.486;10.792;2023-05-09T00:42:53;13.93;;;8.80;;
44995;SDS011;30729;49.486;10.792;2023-05-09T00:45:19;14.18;;;8.88;;
44995;SDS011;30729;49.486;10.792;2023-05-09T00:47:45;16.20;;;8.75;;
44995;SDS011;30729;49.486;10.792;2023-05-09T00:50:10;11.65;;;8.60;;
44995;SDS011;30729;49.486;10.792;2023-05-09T00:52:35;13.07;;;8.97;;
44995;SDS011;30729;49.486;10.792;2023-05-09T00:55:01;14.50;;;8.80;;
44995;SDS011;30729;49.486;10.792;2023-05-09T00:57:26;12.50;;;9.23;;
44995;SDS011;30729;49.486;10.792;2023-05-09T00:59:51;12.75;;;8.82;;
44995;SDS011;30729;49.486;10.792;2023-05-09T01:02:17;13.18;;;8.85;;
44995;SDS011;30729;49.486;10.792;2023-05-09T01:04:43;13.85;;;10.07;;
44995;SDS011;30729;49.486;10.792;2023-05-09T01:07:23;12.43;;;9.20;;
44995;SDS011;30729;49.486;10.792;2023-05-09T01:12:36;13.57;;;8.98;;
44995;SDS011;30729;49.486;10.792;2023-05-09T01:15:06;12.02;;;9.00;;
44995;SDS011;30729;49.486;10.792;2023-05-09T01:17:37;13.00;;;8.63;;
44995;SDS011;30729;49.486;10.792;2023-05-09T01:20:11;14.10;;;9.00;;
44995;SDS011;30729;49.486;10.792;2023-05-09T01:22:39;13.60;;;9.55;;
44995;SDS011;30729;49.486;10.792;2023-05-09T01:30:23;13.32;;;9.30;;
44995;SDS011;30729;49.486;10.792;2023-05-09T01:32:50;12.02;;;9.05;;
44995;SDS011;30729;49.486;10.792;2023-05-09T01:35:15;12.80;;;8.88;;
44995;SDS011;30729;49.486;10.792;2023-05-09T01:37:41;13.80;;;8.95;;
44995;SDS011;30729;49.486;10.792;2023-05-09T01:40:09;14.25;;;8.90;;
44995;SDS011;30729;49.486;10.792;2023-05-09T01:42:41;11.90;;;8.95;;
44995;SDS011;30729;49.486;10.792;2023-05-09T01:45:06;12.05;;;8.40;;
44995;SDS011;30729;49.486;10.792;2023-05-09T01:47:32;13.15;;;8.52;;
44995;SDS011;30729;49.486;10.792;2023-05-09T01:49:57;13.10;;;8.48;;
44995;SDS011;30729;49.486;10.792;2023-05-09T01:52:24;12.32;;;8.50;;
44995;SDS011;30729;49.486;10.792;2023-05-09T01:54:50;11.73;;;8.48;;
44995;SDS011;30729;49.486;10.792;2023-05-09T01:57:15;13.80;;;8.70;;
44995;SDS011;30729;49.486;10.792;2023-05-09T01:59:43;14.25;;;9.02;;
44995;SDS011;30729;49.486;10.792;2023-05-09T02:02:08;15.02;;;8.57;;
44995;SDS011;30729;49.486;10.792;2023-05-09T02:04:34;11.02;;;8.23;;
44995;SDS011;30729;49.486;10.792;2023-05-09T02:06:59;11.75;;;7.88;;
44995;SDS011;30729;49.486;10.792;2023-05-09T02:09:25;12.10;;;7.95;;
44995;SDS011;30729;49.486;10.792;2023-05-09T02:11:51;11.85;;;8.73;;
44995;SDS011;30729;49.486;10.792;2023-05-09T02:14:16;13.55;;;8.45;;
44995;SDS011;30729;49.486;10.792;2023-05-09T02:16:41;11.52;;;8.32;;
44995;SDS011;30729;49.486;10.792;2023-05-09T02:19:06;11.65;;;8.10;;
44995;SDS011;30729;49.486;10.792;2023-05-09T02:21:31;12.43;;;8.73;;
44995;SDS011;30729;49.486;10.792;2023-05-09T02:23:57;12.30;;;8.57;;
44995;SDS011;30729;49.486;10.792;2023-05-09T02:26:23;15.10;;;9.60;;
44995;SDS011;30729;49.486;10.792;2023-05-09T02:28:48;12.10;;;8.38;;
44995;SDS011;30729;49.486;10.792;2023-05-09T02:31:14;12.07;;;8.30;;
44995;SDS011;30729;49.486;10.792;2023-05-09T02:33:40;11.82;;;8.18;;
44995;SDS011;30729;49.486;10.792;2023-05-09T02:36:07;12.60;;;7.95;;
44995;SDS011;30729;49.486;10.792;2023-05-09T02:38:33;11.70;;;8.50;;
44995;SDS011;30729;49.486;10.792;2023-05-09T02:40:59;9.98;;;6.93;;
44995;SDS011;30729;49.486;10.792;2023-05-09T02:43:24;12.63;;;8.10;;
44995;SDS011;30729;49.486;10.792;2023-05-09T02:45:49;12.00;;;8.20;;
44995;SDS011;30729;49.486;10.792;2023-05-09T02:48:14;11.37;;;7.80;;
44995;SDS011;30729;49.486;10.792;2023-05-09T02:50:39;12.77;;;8.32;;
44995;SDS011;30729;49.486;10.792;2023-05-09T02:53:07;10.68;;;7.50;;
44995;SDS011;30729;49.486;10.792;2023-05-09T02:55:32;11.05;;;8.18;;
44995;SDS011;30729;49.486;10.792;2023-05-09T02:57:57;10.93;;;7.22;;
44995;SDS011;30729;49.486;10.792;2023-05-09T03:00:22;11.75;;;8.07;;
44995;SDS011;30729;49.486;10.792;2023-05-09T03:02:49;12.38;;;8.45;;
44995;SDS011;30729;49.486;10.792;2023-05-09T03:05:15;12.93;;;8.57;;
44995;SDS011;30729;49.486;10.792;2023-05-09T03:07:40;11.07;;;7.47;;
44995;SDS011;30729;49.486;10.792;2023-05-09T03:10:05;11.80;;;8.20;;
44995;SDS011;30729;49.486;10.792;2023-05-09T03:12:31;12.23;;;7.97;;
44995;SDS011;30729;49.486;10.792;2023-05-09T03:14:56;12.90;;;8.02;;
44995;SDS011;30729;49.486;10.792;2023-05-09T03:17:21;13.55;;;7.90;;
44995;SDS011;30729;49.486;10.792;2023-05-09T03:19:47;12.07;;;8.25;;
44995;SDS011;30729;49.486;10.792;2023-05-09T03:22:12;12.38;;;8.63;;
44995;SDS011;30729;49.486;10.792;2023-05-09T03:24:37;13.43;;;8.60;;
44995;SDS011;30729;49.486;10.792;2023-05-09T03:27:03;10.73;;;7.45;;
44995;SDS011;30729;49.486;10.792;2023-05-09T03:29:28;13.48;;;8.15;;
44995;SDS011;30729;49.486;10.792;2023-05-09T03:31:53;13.50;;;8.68;;
44995;SDS011;30729;49.486;10.792;2023-05-09T03:34:18;11.43;;;8.07;;
44995;SDS011;30729;49.486;10.792;2023-05-09T03:36:43;12.38;;;7.75;;
44995;SDS011;30729;49.486;10.792;2023-05-09T03:39:09;11.05;;;7.82;;
44995;SDS011;30729;49.486;10.792;2023-05-09T03:41:34;12.23;;;8.40;;
44995;SDS011;30729;49.486;10.792;2023-05-09T03:44:00;12.90;;;8.75;;
44995;SDS011;30729;49.486;10.792;2023-05-09T03:46:25;13.50;;;8.32;;
44995;SDS011;30729;49.486;10.792;2023-05-09T03:48:50;15.50;;;8.27;;
44995;SDS011;30729;49.486;10.792;2023-05-09T03:51:15;12.73;;;8.27;;
44995;SDS011;30729;49.486;10.792;2023-05-09T03:53:40;12.88;;;8.82;;
44995;SDS011;30729;49.486;10.792;2023-05-09T03:56:06;13.77;;;9.10;;
44995;SDS011;30729;49.486;10.792;2023-05-09T03:58:31;13.15;;;9.13;;
44995;SDS011;30729;49.486;10.792;2023-05-09T04:00:56;12.07;;;8.27;;
44995;SDS011;30729;49.486;10.792;2023-05-09T04:03:21;15.65;;;10.18;;
44995;SDS011;30729;49.486;10.792;2023-05-09T04:05:47;13.80;;;9.38;;
44995;SDS011;30729;49.486;10.792;2023-05-09T04:08:12;11.98;;;9.07;;
44995;SDS011;30729;49.486;10.792;2023-05-09T04:10:37;13.73;;;9.40;;
44995;SDS011;30729;49.486;10.792;2023-05-09T04:13:03;12.30;;;8.80;;
44995;SDS011;30729;49.486;10.792;2023-05-09T04:15:28;13.38;;;8.88;;
44995;SDS011;30729;49.486;10.792;2023-05-09T04:17:53;14.13;;;9.57;;
44995;SDS011;30729;49.486;10.792;2023-05-09T04:20:18;13.65;;;9.13;;
44995;SDS011;30729;49.486;10.792;2023-05-09T04:22:43;15.80;;;9.20;;
44995;SDS011;30729;49.486;10.792;2023-05-09T04:25:08;14.27;;;9.57;;
44995;SDS011;30729;49.486;10.792;2023-05-09T04:27:38;14.15;;;9.32;;
44995;SDS011;30729;49.486;10.792;2023-05-09T04:30:03;13.82;;;9.75;;
44995;SDS011;30729;49.486;10.792;2023-05-09T04:32:29;13.25;;;9.05;;
44995;SDS011;30729;49.486;10.792;2023-05-09T04:34:54;13.40;;;9.07;;
44995;SDS011;30729;49.486;10.792;2023-05-09T04:37:19;14.55;;;9.13;;
44995;SDS011;30729;49.486;10.792;2023-05-09T04:39:44;12.65;;;8.57;;
44995;SDS011;30729;49.486;10.792;2023-05-09T04:42:09;13.23;;;9.47;;
44995;SDS011;30729;49.486;10.792;2023-05-09T04:44:35;12.27;;;8.65;;
44995;SDS011;30729;49.486;10.792;2023-05-09T04:47:00;12.35;;;8.50;;
44995;SDS011;30729;49.486;10.792;2023-05-09T04:49:25;12.05;;;8.13;;
44995;SDS011;30729;49.486;10.792;2023-05-09T04:51:51;14.25;;;9.40;;
44995;SDS011;30729;49.486;10.792;2023-05-09T04:54:16;13.50;;;9.18;;
44995;SDS011;30729;49.486;10.792;2023-05-09T04:56:41;14.98;;;8.88;;
44995;SDS011;30729;49.486;10.792;2023-05-09T04:59:06;12.75;;;8.68;;
44995;SDS011;30729;49.486;10.792;2023-05-09T05:01:31;12.57;;;9.10;;
44995;SDS011;30729;49.486;10.792;2023-05-09T05:03:56;12.70;;;8.63;;
44995;SDS011;30729;49.486;10.792;2023-05-09T05:06:21;11.82;;;8.27;;
44995;SDS011;30729;49.486;10.792;2023-05-09T05:08:47;13.48;;;8.70;;
44995;SDS011;30729;49.486;10.792;2023-05-09T05:11:12;13.05;;;8.43;;
44995;SDS011;30729;49.486;10.792;2023-05-09T05:13:37;12.32;;;8.27;;
44995;SDS011;30729;49.486;10.792;2023-05-09T05:16:03;11.25;;;7.43;;
44995;SDS011;30729;49.486;10.792;2023-05-09T05:18:28;12.75;;;8.35;;
44995;SDS011;30729;49.486;10.792;2023-05-09T05:20:53;11.77;;;7.78;;
44995;SDS011;30729;49.486;10.792;2023-05-09T05:23:18;14.70;;;8.30;;
44995;SDS011;30729;49.486;10.792;2023-05-09T05:25:43;12.60;;;7.87;;
44995;SDS011;30729;49.486;10.792;2023-05-09T05:28:09;12.10;;;7.83;;
44995;SDS011;30729;49.486;10.792;2023-05-09T05:30:34;13.20;;;8.27;;
44995;SDS011;30729;49.486;10.792;2023-05-09T05:32:59;11.27;;;8.15;;
44995;SDS011;30729;49.486;10.792;2023-05-09T05:35:24;12.77;;;9.00;;
44995;SDS011;30729;49.486;10.792;2023-05-09T05:37:50;11.80;;;8.43;;
44995;SDS011;30729;49.486;10.792;2023-05-09T05:40:16;14.82;;;8.80;;
44995;SDS011;30729;49.486;10.792;2023-05-09T05:42:41;13.27;;;8.68;;
44995;SDS011;30729;49.486;10.792;2023-05-09T05:45:08;13.57;;;9.32;;
44995;SDS011;30729;49.486;10.792;2023-05-09T05:47:33;12.80;;;8.73;;
44995;SDS011;30729;49.486;10.792;2023-05-09T05:49:59;15.35;;;9.13;;
44995;SDS011;30729;49.486;10.792;2023-05-09T05:52:24;13.77;;;8.55;;
44995;SDS011;30729;49.486;10.792;2023-05-09T05:54:51;16.80;;;10.00;;
44995;SDS011;30729;49.486;10.792;2023-05-09T05:57:16;12.82;;;8.80;;
44995;SDS011;30729;49.486;10.792;2023-05-09T05:59:41;13.93;;;8.65;;
44995;SDS011;30729;49.486;10.792;2023-05-09T06:02:06;13.73;;;8.18;;
44995;SDS011;30729;49.486;10.792;2023-05-09T06:04:31;14.82;;;7.78;;
44995;SDS011;30729;49.486;10.792;2023-05-09T06:06:56;10.85;;;7.03;;
44995;SDS011;30729;49.486;10.792;2023-05-09T06:09:22;13.50;;;7.75;;
44995;SDS011;30729;49.486;10.792;2023-05-09T06:11:47;13.63;;;7.95;;
44995;SDS011;30729;49.486;10.792;2023-05-09T06:14:12;11.80;;;7.07;;
44995;SDS011;30729;49.486;10.792;2023-05-09T06:16:37;12.18;;;8.07;;
44995;SDS011;30729;49.486;10.792;2023-05-09T06:19:02;12.80;;;7.53;;
44995;SDS011;30729;49.486;10.792;2023-05-09T06:21:27;12.05;;;7.47;;
44995;SDS011;30729;49.486;10.792;2023-05-09T06:23:53;10.55;;;6.68;;
44995;SDS011;30729;49.486;10.792;2023-05-09T06:26:18;10.97;;;6.73;;
44995;SDS011;30729;49.486;10.792;2023-05-09T06:28:43;10.43;;;6.90;;
44995;SDS011;30729;49.486;10.792;2023-05-09T06:31:08;11.90;;;6.50;;
44995;SDS011;30729;49.486;10.792;2023-05-09T06:33:33;10.60;;;6.70;;
44995;SDS011;30729;49.486;10.792;2023-05-09T06:35:58;9.98;;;6.68;;
44995;SDS011;30729;49.486;10.792;2023-05-09T06:41:14;11.73;;;6.10;;
44995;SDS011;30729;49.486;10.792;2023-05-09T06:43:39;11.55;;;6.25;;
44995;SDS011;30729;49.486;10.792;2023-05-09T06:46:04;9.48;;;5.60;;
44995;SDS011;30729;49.486;10.792;2023-05-09T06:48:29;10.93;;;6.32;;
44995;SDS011;30729;49.486;10.792;2023-05-09T06:50:54;9.60;;;6.20;;
44995;SDS011;30729;49.486;10.792;2023-05-09T06:53:20;9.55;;;6.45;;
44995;SDS011;30729;49.486;10.792;2023-05-09T06:55:45;10.70;;;5.93;;
44995;SDS011;30729;49.486;10.792;2023-05-09T06:58:10;10.52;;;6.63;;
44995;SDS011;30729;49.486;10.792;2023-05-09T07:00:36;12.10;;;6.50;;
44995;SDS011;30729;49.486;10.792;2023-05-09T07:03:01;10.82;;;6.45;;
44995;SDS011;30729;49.486;10.792;2023-05-09T07:05:26;10.33;;;5.90;;
44995;SDS011;30729;49.486;10.792;2023-05-09T07:07:51;8.50;;;5.70;;
44995;SDS011;30729;49.486;10.792;2023-05-09T07:10:19;9.23;;;5.47;;
44995;SDS011;30729;49.486;10.792;2023-05-09T07:12:44;9.93;;;5.70;;
44995;SDS011;30729;49.486;10.792;2023-05-09T07:15:09;10.77;;;5.75;;
44995;SDS011;30729;49.486;10.792;2023-05-09T07:17:34;9.27;;;5.60;;
44995;SDS011;30729;49.486;10.792;2023-05-09T07:20:00;8.63;;;5.18;;
44995;SDS011;30729;49.486;10.792;2023-05-09T07:22:27;9.35;;;5.13;;
44995;SDS011;30729;49.486;10.792;2023-05-09T07:24:52;8.52;;;4.90;;
44995;SDS011;30729;49.486;10.792;2023-05-09T07:27:18;9.50;;;5.53;;
44995;SDS011;30729;49.486;10.792;2023-05-09T07:29:43;9.35;;;5.13;;
44995;SDS011;30729;49.486;10.792;2023-05-09T07:32:08;8.40;;;4.88;;
44995;SDS011;30729;49.486;10.792;2023-05-09T07:34:33;9.85;;;5.10;;
44995;SDS011;30729;49.486;10.792;2023-05-09T07:36:59;10.35;;;4.90;;
44995;SDS011;30729;49.486;10.792;2023-05-09T07:39:24;9.77;;;5.60;;
44995;SDS011;30729;49.486;10.792;2023-05-09T07:41:50;12.27;;;5.10;;
44995;SDS011;30729;49.486;10.792;2023-05-09T07:44:15;6.90;;;4.05;;
44995;SDS011;30729;49.486;10.792;2023-05-09T07:46:40;7.95;;;5.03;;
44995;SDS011;30729;49.486;10.792;2023-05-09T07:49:06;8.57;;;5.00;;
44995;SDS011;30729;49.486;10.792;2023-05-09T07:51:31;8.02;;;3.80;;
44995;SDS011;30729;49.486;10.792;2023-05-09T07:53:56;8.02;;;4.22;;
44995;SDS011;30729;49.486;10.792;2023-05-09T07:56:21;9.27;;;4.63;;
44995;SDS011;30729;49.486;10.792;2023-05-09T07:58:47;7.55;;;4.22;;
44995;SDS011;30729;49.486;10.792;2023-05-09T08:01:12;6.90;;;3.63;;
44995;SDS011;30729;49.486;10.792;2023-05-09T08:03:37;7.40;;;3.30;;
44995;SDS011;30729;49.486;10.792;2023-05-09T08:06:03;5.53;;;3.17;;
44995;SDS011;30729;49.486;10.792;2023-05-09T08:08:28;9.20;;;3.50;;
44995;SDS011;30729;49.486;10.792;2023-05-09T08:10:53;6.07;;;3.22;;
44995;SDS011;30729;49.486;10.792;2023-05-09T08:13:18;6.38;;;3.38;;
44995;SDS011;30729;49.486;10.792;2023-05-09T08:15:44;9.80;;;4.18;;
44995;SDS011;30729;49.486;10.792;2023-05-09T08:18:09;7.78;;;3.60;;
44995;SDS011;30729;49.486;10.792;2023-05-09T08:20:34;8.73;;;3.63;;
44995;SDS011;30729;49.486;10.792;2023-05-09T08:23:00;9.10;;;3.97;;
44995;SDS011;30729;49.486;10.792;2023-05-09T08:25:25;10.70;;;3.47;;
44995;SDS011;30729;49.486;10.792;2023-05-09T08:27:50;6.25;;;3.35;;
44995;SDS011;30729;49.486;10.792;2023-05-09T08:30:15;7.83;;;3.90;;
44995;SDS011;30729;49.486;10.792;2023-05-09T08:32:40;5.57;;;3.15;;
44995;SDS011;30729;49.486;10.792;2023-05-09T08:35:06;5.78;;;3.15;;
44995;SDS011;30729;49.486;10.792;2023-05-09T08:37:32;8.85;;;3.25;;
44995;SDS011;30729;49.486;10.792;2023-05-09T08:39:58;6.90;;;3.47;;
44995;SDS011;30729;49.486;10.792;2023-05-09T08:42:23;6.97;;;3.47;;
44995;SDS011;30729;49.486;10.792;2023-05-09T08:44:50;6.60;;;3.38;;
44995;SDS011;30729;49.486;10.792;2023-05-09T08:47:15;9.50;;;3.70;;
44995;SDS011;30729;49.486;10.792;2023-05-09T08:49:40;6.93;;;3.38;;
44995;SDS011;30729;49.486;10.792;2023-05-09T08:52:05;5.80;;;2.97;;
44995;SDS011;30729;49.486;10.792;2023-05-09T08:54:31;4.70;;;2.55;;
44995;SDS011;30729;49.486;10.792;2023-05-09T08:56:56;6.65;;;2.85;;
44995;SDS011;30729;49.486;10.792;2023-05-09T08:59:21;6.57;;;3.08;;
44995;SDS011;30729;49.486;10.792;2023-05-09T09:01:47;6.47;;;3.13;;
44995;SDS011;30729;49.486;10.792;2023-05-09T09:04:12;6.72;;;3.80;;
44995;SDS011;30729;49.486;10.792;2023-05-09T09:06:38;5.97;;;3.20;;
44995;SDS011;30729;49.486;10.792;2023-05-09T09:09:04;6.20;;;3.38;;
44995;SDS011;30729;49.486;10.792;2023-05-09T09:11:30;5.97;;;3.03;;
44995;SDS011;30729;49.486;10.792;2023-05-09T09:13:55;7.55;;;3.17;;
44995;SDS011;30729;49.486;10.792;2023-05-09T09:16:24;7.55;;;3.30;;
44995;SDS011;30729;49.486;10.792;2023-05-09T09:18:52;10.15;;;4.63;;
44995;SDS011;30729;49.486;10.792;2023-05-09T09:21:18;6.45;;;3.28;;
44995;SDS011;30729;49.486;10.792;2023-05-09T09:23:44;5.72;;;3.30;;
44995;SDS011;30729;49.486;10.792;2023-05-09T09:26:11;5.53;;;3.10;;
44995;SDS011;30729;49.486;10.792;2023-05-09T09:28:36;5.43;;;3.23;;
44995;SDS011;30729;49.486;10.792;2023-05-09T09:31:01;6.22;;;3.17;;
44995;SDS011;30729;49.486;10.792;2023-05-09T09:33:42;10.18;;;3.13;;
44995;SDS011;30729;49.486;10.792;2023-05-09T09:36:07;7.50;;;3.28;;
44995;SDS011;30729;49.486;10.792;2023-05-09T09:38:39;5.72;;;3.50;;
44995;SDS011;30729;49.486;10.792;2023-05-09T09:41:05;6.88;;;3.47;;
44995;SDS011;30729;49.486;10.792;2023-05-09T09:43:30;6.70;;;3.33;;
44995;SDS011;30729;49.486;10.792;2023-05-09T09:45:55;6.47;;;3.22;;
44995;SDS011;30729;49.486;10.792;2023-05-09T09:48:31;5.18;;;3.10;;
44995;SDS011;30729;49.486;10.792;2023-05-09T09:51:00;5.28;;;2.97;;
44995;SDS011;30729;49.486;10.792;2023-05-09T09:53:26;5.57;;;2.90;;
44995;SDS011;30729;49.486;10.792;2023-05-09T09:55:54;7.63;;;3.13;;
44995;SDS011;30729;49.486;10.792;2023-05-09T09:58:19;4.40;;;2.70;;
44995;SDS011;30729;49.486;10.792;2023-05-09T10:01:02;6.97;;;3.13;;
44995;SDS011;30729;49.486;10.792;2023-05-09T10:03:33;5.65;;;2.90;;
44995;SDS011;30729;49.486;10.792;2023-05-09T10:06:00;9.73;;;2.83;;
44995;SDS011;30729;49.486;10.792;2023-05-09T10:08:25;6.82;;;2.33;;
44995;SDS011;30729;49.486;10.792;2023-05-09T10:10:50;5.00;;;3.00;;
44995;SDS011;30729;49.486;10.792;2023-05-09T10:13:16;6.07;;;2.75;;
44995;SDS011;30729;49.486;10.792;2023-05-09T10:15:41;4.67;;;2.80;;
44995;SDS011;30729;49.486;10.792;2023-05-09T10:18:07;5.00;;;2.50;;
44995;SDS011;30729;49.486;10.792;2023-05-09T10:20:34;8.07;;;2.72;;
44995;SDS011;30729;49.486;10.792;2023-05-09T10:23:03;4.63;;;2.33;;
44995;SDS011;30729;49.486;10.792;2023-05-09T10:25:32;7.13;;;2.78;;
44995;SDS011;30729;49.486;10.792;2023-05-09T10:28:01;4.85;;;2.47;;
44995;SDS011;30729;49.486;10.792;2023-05-09T10:30:34;5.30;;;3.05;;
44995;SDS011;30729;49.486;10.792;2023-05-09T10:33:08;5.07;;;2.28;;
44995;SDS011;30729;49.486;10.792;2023-05-09T10:35:41;4.65;;;2.60;;
44995;SDS011;30729;49.486;10.792;2023-05-09T10:38:07;4.47;;;2.17;;
44995;SDS011;30729;49.486;10.792;2023-05-09T10:40:33;4.90;;;2.08;;
44995;SDS011;30729;49.486;10.792;2023-05-09T10:42:59;5.03;;;2.20;;
44995;SDS011;30729;49.486;10.792;2023-05-09T10:45:24;4.60;;;2.30;;
44995;SDS011;30729;49.486;10.792;2023-05-09T10:47:50;6.20;;;2.45;;
44995;SDS011;30729;49.486;10.792;2023-05-09T10:50:16;5.32;;;2.10;;
44995;SDS011;30729;49.486;10.792;2023-05-09T10:55:34;5.60;;;2.58;;
44995;SDS011;30729;49.486;10.792;2023-05-09T10:57:59;5.15;;;2.53;;
44995;SDS011;30729;49.486;10.792;2023-05-09T11:00:31;5.65;;;2.83;;
44995;SDS011;30729;49.486;10.792;2023-05-09T11:03:05;4.33;;;2.40;;
44995;SDS011;30729;49.486;10.792;2023-05-09T11:05:36;4.53;;;2.38;;
44995;SDS011;30729;49.486;10.792;2023-05-09T11:10:46;3.83;;;2.50;;
44995;SDS011;30729;49.486;10.792;2023-05-09T11:13:11;4.22;;;2.40;;
44995;SDS011;30729;49.486;10.792;2023-05-09T11:18:35;4.93;;;2.63;;
44995;SDS011;30729;49.486;10.792;2023-05-09T11:21:13;5.50;;;2.60;;
44995;SDS011;30729;49.486;10.792;2023-05-09T11:23:38;3.80;;;2.45;;
44995;SDS011;30729;49.486;10.792;2023-05-09T11:26:04;9.30;;;2.58;;
44995;SDS011;30729;49.486;10.792;2023-05-09T11:28:32;5.60;;;2.55;;
44995;SDS011;30729;49.486;10.792;2023-05-09T11:31:16;4.45;;;2.50;;
44995;SDS011;30729;49.486;10.792;2023-05-09T11:33:42;4.38;;;2.47;;
44995;SDS011;30729;49.486;10.792;2023-05-09T11:38:43;4.50;;;2.10;;
44995;SDS011;30729;49.486;10.792;2023-05-09T11:41:09;4.47;;;2.35;;
44995;SDS011;30729;49.486;10.792;2023-05-09T11:43:35;4.53;;;2.40;;
44995;SDS011;30729;49.486;10.792;2023-05-09T11:46:00;7.03;;;3.08;;
44995;SDS011;30729;49.486;10.792;2023-05-09T11:48:26;5.00;;;2.67;;
44995;SDS011;30729;49.486;10.792;2023-05-09T11:50:51;5.80;;;2.80;;
44995;SDS011;30729;49.486;10.792;2023-05-09T11:53:16;4.82;;;2.42;;
44995;SDS011;30729;49.486;10.792;2023-05-09T11:55:41;3.97;;;2.10;;
44995;SDS011;30729;49.486;10.792;2023-05-09T11:58:06;4.30;;;2.05;;
44995;SDS011;30729;49.486;10.792;2023-05-09T12:00:31;5.63;;;2.20;;
44995;SDS011;30729;49.486;10.792;2023-05-09T12:02:57;5.78;;;2.03;;
44995;SDS011;30729;49.486;10.792;2023-05-09T12:05:22;5.40;;;2.50;;
44995;SDS011;30729;49.486;10.792;2023-05-09T12:07:47;4.68;;;2.30;;
44995;SDS011;30729;49.486;10.792;2023-05-09T12:10:19;7.50;;;2.13;;
44995;SDS011;30729;49.486;10.792;2023-05-09T12:12:45;6.93;;;2.00;;
44995;SDS011;30729;49.486;10.792;2023-05-09T12:15:10;4.00;;;2.38;;
44995;SDS011;30729;49.486;10.792;2023-05-09T12:17:37;3.15;;;2.10;;
44995;SDS011;30729;49.486;10.792;2023-05-09T12:20:02;4.25;;;1.85;;
44995;SDS011;30729;49.486;10.792;2023-05-09T12:22:29;2.70;;;1.60;;
44995;SDS011;30729;49.486;10.792;2023-05-09T12:24:55;4.32;;;1.88;;
44995;SDS011;30729;49.486;10.792;2023-05-09T12:27:20;4.78;;;1.92;;
44995;SDS011;30729;49.486;10.792;2023-05-09T12:29:46;3.55;;;1.85;;
44995;SDS011;30729;49.486;10.792;2023-05-09T12:32:14;3.08;;;1.48;;
44995;SDS011;30729;49.486;10.792;2023-05-09T12:34:40;2.83;;;1.58;;
44995;SDS011;30729;49.486;10.792;2023-05-09T12:37:15;4.53;;;1.88;;
44995;SDS011;30729;49.486;10.792;2023-05-09T12:39:44;4.68;;;1.80;;
44995;SDS011;30729;49.486;10.792;2023-05-09T12:42:12;3.67;;;1.80;;
44995;SDS011;30729;49.486;10.792;2023-05-09T12:44:38;4.80;;;1.70;;
44995;SDS011;30729;49.486;10.792;2023-05-09T12:47:03;3.40;;;1.73;;
44995;SDS011;30729;49.486;10.792;2023-05-09T12:49:29;3.33;;;1.50;;
44995;SDS011;30729;49.486;10.792;2023-05-09T12:51:58;3.70;;;1.50;;
44995;SDS011;30729;49.486;10.792;2023-05-09T12:54:25;6.78;;;3.67;;
44995;SDS011;30729;49.486;10.792;2023-05-09T12:56:51;5.43;;;1.80;;
44995;SDS011;30729;49.486;10.792;2023-05-09T12:59:19;4.80;;;2.00;;
44995;SDS011;30729;49.486;10.792;2023-05-09T13:01:44;3.70;;;1.52;;
44995;SDS011;30729;49.486;10.792;2023-05-09T13:04:14;3.25;;;1.58;;
44995;SDS011;30729;49.486;10.792;2023-05-09T13:06:49;2.25;;;1.40;;
44995;SDS011;30729;49.486;10.792;2023-05-09T13:09:15;2.60;;;1.73;;
44995;SDS011;30729;49.486;10.792;2023-05-09T13:11:40;4.07;;;1.70;;
44995;SDS011;30729;49.486;10.792;2023-05-09T13:14:05;3.03;;;1.60;;
44995;SDS011;30729;49.486;10.792;2023-05-09T13:16:31;5.63;;;1.77;;
44995;SDS011;30729;49.486;10.792;2023-05-09T13:18:56;2.95;;;1.50;;
44995;SDS011;30729;49.486;10.792;2023-05-09T13:21:21;2.70;;;1.50;;
44995;SDS011;30729;49.486;10.792;2023-05-09T13:23:46;3.15;;;1.50;;
44995;SDS011;30729;49.486;10.792;2023-05-09T13:26:13;4.10;;;1.60;;
44995;SDS011;30729;49.486;10.792;2023-05-09T13:28:39;5.20;;;1.60;;
44995;SDS011;30729;49.486;10.792;2023-05-09T13:31:04;2.85;;;1.38;;
44995;SDS011;30729;49.486;10.792;2023-05-09T13:33:30;2.00;;;1.30;;
44995;SDS011;30729;49.486;10.792;2023-05-09T13:35:55;2.97;;;1.50;;
44995;SDS011;30729;49.486;10.792;2023-05-09T13:38:20;4.50;;;1.58;;
44995;SDS011;30729;49.486;10.792;2023-05-09T13:40:45;4.88;;;1.60;;
44995;SDS011;30729;49.486;10.792;2023-05-09T13:43:11;4.03;;;1.70;;
44995;SDS011;30729;49.486;10.792;2023-05-09T13:45:36;3.78;;;1.70;;
44995;SDS011;30729;49.486;10.792;2023-05-09T13:48:01;5.53;;;1.80;;
44995;SDS011;30729;49.486;10.792;2023-05-09T13:50:26;4.33;;;1.70;;
44995;SDS011;30729;49.486;10.792;2023-05-09T13:52:51;3.20;;;1.50;;
44995;SDS011;30729;49.486;10.792;2023-05-09T13:55:16;4.07;;;3.00;;
44995;SDS011;30729;49.486;10.792;2023-05-09T13:57:42;3.85;;;1.85;;
44995;SDS011;30729;49.486;10.792;2023-05-09T14:00:07;3.80;;;1.70;;
44995;SDS011;30729;49.486;10.792;2023-05-09T14:02:33;6.45;;;1.60;;
44995;SDS011;30729;49.486;10.792;2023-05-09T14:04:58;2.72;;;1.60;;
44995;SDS011;30729;49.486;10.792;2023-05-09T14:07:23;4.13;;;2.00;;
44995;SDS011;30729;49.486;10.792;2023-05-09T14:09:48;4.25;;;1.85;;
44995;SDS011;30729;49.486;10.792;2023-05-09T14:12:13;6.17;;;2.00;;
44995;SDS011;30729;49.486;10.792;2023-05-09T14:14:38;6.20;;;1.70;;
44995;SDS011;30729;49.486;10.792;2023-05-09T14:17:04;5.90;;;1.67;;
44995;SDS011;30729;49.486;10.792;2023-05-09T14:19:29;3.30;;;1.75;;
44995;SDS011;30729;49.486;10.792;2023-05-09T14:21:54;3.80;;;1.58;;
44995;SDS011;30729;49.486;10.792;2023-05-09T14:24:20;4.50;;;2.00;;
44995;SDS011;30729;49.486;10.792;2023-05-09T14:26:45;5.53;;;1.83;;
44995;SDS011;30729;49.486;10.792;2023-05-09T14:29:10;4.57;;;2.00;;
44995;SDS011;30729;49.486;10.792;2023-05-09T14:31:35;8.75;;;2.35;;
44995;SDS011;30729;49.486;10.792;2023-05-09T14:34:01;6.47;;;2.03;;
44995;SDS011;30729;49.486;10.792;2023-05-09T14:36:28;5.05;;;2.05;;
44995;SDS011;30729;49.486;10.792;2023-05-09T14:38:53;3.42;;;1.90;;
44995;SDS011;30729;49.486;10.792;2023-05-09T14:41:18;8.77;;;2.42;;
44995;SDS011;30729;49.486;10.792;2023-05-09T14:43:44;4.18;;;1.80;;